createdAt,value
2022-08-04T00:04:00.712Z,2.85
2022-08-04T00:06:51.536Z,3.03
2022-08-04T00:09:47.537Z,3.15
2022-08-04T00:12:17.888Z,2.80
2022-08-04T00:14:57.245Z,2.47
2022-08-04T00:17:47.719Z,2.83
2022-08-04T00:20:28.199Z,2.72
2022-08-04T00:22:57.999Z,2.90
2022-08-04T00:25:26.493Z,3.35
2022-08-04T00:27:55.499Z,2.97
2022-08-04T00:30:23.366Z,3.50
2022-08-04T00:32:52.673Z,3.03
2022-08-04T00:35:20.544Z,3.38
2022-08-04T00:37:48.524Z,3.35
2022-08-04T00:40:37.758Z,3.00
2022-08-04T00:43:35.729Z,3.60
2022-08-04T00:46:18.246Z,3.13
2022-08-04T00:49:07.152Z,3.10
2022-08-04T00:52:30.932Z,2.70
2022-08-04T00:55:12.838Z,3.20
2022-08-04T00:58:26.083Z,3.22
2022-08-04T01:01:12.022Z,3.08
2022-08-04T01:03:51.943Z,2.70
2022-08-04T01:06:56.096Z,3.05
2022-08-04T01:09:48.493Z,2.88
2022-08-04T01:12:41.350Z,2.95
2022-08-04T01:15:59.697Z,2.92
2022-08-04T01:18:34.899Z,2.60
2022-08-04T01:21:29.597Z,2.90
2022-08-04T01:24:30.224Z,2.60
2022-08-04T01:27:12.091Z,3.03
2022-08-04T01:29:50.744Z,3.38
2022-08-04T01:32:32.026Z,2.95
2022-08-04T01:35:48.017Z,2.60
2022-08-04T01:38:21.363Z,2.90
2022-08-04T01:40:54.876Z,2.55
2022-08-04T01:43:24.570Z,2.40
2022-08-04T01:45:59.010Z,2.45
2022-08-04T01:48:28.303Z,2.53
2022-08-04T01:51:03.426Z,2.42
2022-08-04T01:53:34.106Z,2.92
2022-08-04T01:56:03.091Z,2.40
2022-08-04T01:58:32.570Z,2.33
2022-08-04T02:01:08.193Z,2.97
2022-08-04T02:04:22.029Z,2.10
2022-08-04T02:06:45.325Z,2.53
2022-08-04T02:09:17.869Z,2.40
2022-08-04T02:12:02.074Z,2.10
2022-08-04T02:14:41.075Z,2.20
2022-08-04T02:17:26.555Z,2.55
2022-08-04T02:20:09.070Z,2.10
2022-08-04T02:22:46.995Z,2.47
2022-08-04T02:25:20.506Z,2.10
2022-08-04T02:28:00.349Z,2.25
2022-08-04T02:33:04.686Z,2.30
2022-08-04T02:35:38.912Z,2.83
2022-08-04T02:38:27.902Z,2.50
2022-08-04T02:41:01.839Z,3.00
2022-08-04T02:43:50.813Z,2.17
2022-08-04T02:46:21.770Z,2.65
2022-08-04T02:48:53.324Z,2.20
2022-08-04T02:51:30.760Z,2.40
2022-08-04T02:54:02.270Z,3.00
2022-08-04T02:56:32.855Z,2.85
2022-08-04T02:59:12.110Z,2.42
2022-08-04T03:01:42.581Z,2.40
2022-08-04T03:05:04.204Z,3.13
2022-08-04T03:08:00.751Z,2.45
2022-08-04T03:11:08.013Z,2.63
2022-08-04T03:13:47.489Z,2.42
2022-08-04T03:17:01.800Z,2.23
2022-08-04T03:20:01.585Z,3.17
2022-08-04T03:23:15.307Z,2.60
2022-08-04T03:26:01.078Z,3.33
2022-08-04T03:29:07.059Z,2.60
2022-08-04T03:31:34.428Z,2.78
2022-08-04T03:34:05.735Z,2.92
2022-08-04T03:36:55.164Z,2.75
2022-08-04T03:40:08.939Z,2.70
2022-08-04T03:43:57.154Z,2.70
2022-08-04T03:46:45.476Z,2.00
2022-08-04T03:49:58.886Z,2.53
2022-08-04T03:53:10.881Z,2.50
2022-08-04T03:56:10.895Z,2.45
2022-08-04T03:59:05.831Z,2.10
2022-08-04T04:02:02.510Z,2.55
2022-08-04T04:04:52.260Z,2.28
2022-08-04T04:08:18.929Z,2.10
2022-08-04T04:11:00.181Z,1.85
2022-08-04T04:13:57.619Z,2.10
2022-08-04T04:16:59.176Z,2.38
2022-08-04T04:19:47.254Z,2.10
2022-08-04T04:22:48.475Z,2.08
2022-08-04T04:25:47.388Z,2.83
2022-08-04T04:28:45.692Z,2.75
2022-08-04T04:31:30.122Z,2.80
2022-08-04T04:34:29.798Z,2.47
2022-08-04T04:37:35.009Z,2.00
2022-08-04T04:40:09.308Z,2.50
2022-08-04T04:43:05.293Z,2.97
2022-08-04T04:46:10.288Z,3.30
2022-08-04T04:49:15.744Z,2.80
2022-08-04T04:51:54.081Z,3.45
2022-08-04T04:54:36.858Z,3.38
2022-08-04T04:57:53.951Z,4.18
2022-08-04T05:00:16.164Z,3.85
2022-08-04T05:03:00.811Z,4.22
2022-08-04T05:05:29.740Z,3.70
2022-08-04T05:08:44.686Z,4.03
2022-08-04T05:11:25.031Z,4.07
2022-08-04T05:14:37.037Z,3.20
2022-08-04T05:17:17.031Z,4.40
2022-08-04T05:20:09.084Z,4.43
2022-08-04T05:22:55.882Z,3.67
2022-08-04T05:25:28.866Z,3.83
2022-08-04T05:28:08.520Z,4.20
2022-08-04T05:30:52.135Z,3.88
2022-08-04T05:33:39.266Z,3.92
2022-08-04T05:36:20.384Z,3.65
2022-08-04T05:39:00.102Z,3.80
2022-08-04T05:41:32.337Z,4.45
2022-08-04T05:44:18.746Z,3.75
2022-08-04T05:46:53.649Z,4.32
2022-08-04T05:49:29.653Z,4.22
2022-08-04T05:52:03.343Z,3.80
2022-08-04T05:54:34.628Z,4.18
2022-08-04T05:57:06.194Z,4.88
2022-08-04T05:59:37.799Z,4.65
2022-08-04T06:02:09.208Z,4.25
2022-08-04T06:04:41.762Z,3.83
2022-08-04T06:07:11.635Z,4.45
2022-08-04T06:09:42.743Z,3.95
2022-08-04T06:12:25.775Z,4.00
2022-08-04T06:14:59.422Z,3.70
2022-08-04T06:19:57.377Z,4.45
2022-08-04T06:20:50.184Z,4.22
2022-08-04T06:23:21.099Z,4.15
2022-08-04T06:25:55.569Z,4.53
2022-08-04T06:28:24.318Z,3.78
2022-08-04T06:30:53.695Z,4.03
2022-08-04T06:33:27.714Z,4.60
2022-08-04T06:36:00.774Z,3.97
2022-08-04T06:38:31.178Z,4.15
2022-08-04T06:40:59.958Z,4.10
2022-08-04T06:43:29.569Z,4.30
2022-08-04T06:46:03.349Z,4.25
2022-08-04T06:48:33.388Z,4.90
2022-08-04T06:51:28.278Z,4.95
2022-08-04T06:53:50.953Z,4.80
2022-08-04T06:56:20.613Z,4.50
2022-08-04T06:58:50.569Z,4.80
2022-08-04T07:01:22.148Z,4.10
2022-08-04T07:03:50.880Z,4.63
2022-08-04T07:06:29.967Z,5.10
2022-08-04T07:09:05.408Z,4.35
2022-08-04T07:11:44.323Z,4.43
2022-08-04T07:16:49.137Z,4.53
2022-08-04T07:19:19.335Z,4.57
2022-08-04T07:22:21.822Z,4.25
2022-08-04T07:24:38.430Z,4.57
2022-08-04T07:27:19.406Z,4.53
2022-08-04T07:30:08.436Z,4.22
2022-08-04T07:32:42.160Z,3.50
2022-08-04T07:35:14.774Z,3.35
2022-08-04T07:37:59.275Z,3.03
2022-08-04T07:40:27.798Z,3.05
2022-08-04T07:42:56.209Z,2.60
2022-08-04T07:45:26.603Z,2.40
2022-08-04T07:48:04.722Z,3.28
2022-08-04T07:50:35.551Z,2.40
2022-08-04T07:53:52.665Z,3.05
2022-08-04T07:55:53.877Z,2.13
2022-08-04T07:58:29.809Z,3.30
2022-08-04T08:03:31.450Z,2.80
2022-08-04T08:06:31.184Z,2.85
2022-08-04T08:08:48.693Z,3.33
2022-08-04T08:11:18.138Z,3.80
2022-08-04T08:13:47.747Z,3.15
2022-08-04T08:16:17.323Z,3.85
2022-08-04T08:18:49.876Z,3.65
2022-08-04T08:21:21.758Z,3.70
2022-08-04T08:23:51.482Z,3.75
2022-08-04T08:26:19.144Z,4.43
2022-08-04T08:28:47.986Z,4.75
2022-08-04T08:31:16.796Z,5.05
2022-08-04T08:33:46.829Z,5.00
2022-08-04T08:39:06.789Z,5.63
2022-08-04T08:41:53.196Z,6.05
2022-08-04T08:44:37.929Z,4.82
2022-08-04T08:47:21.381Z,5.00
2022-08-04T08:50:31.266Z,5.53
2022-08-04T08:53:21.759Z,5.70
2022-08-04T08:56:41.164Z,5.28
2022-08-04T08:59:20.759Z,4.03
2022-08-04T09:02:07.569Z,4.45
2022-08-04T09:04:50.474Z,4.30
2022-08-04T09:07:58.520Z,4.57
2022-08-04T09:10:51.907Z,5.10
2022-08-04T09:13:47.732Z,4.63
2022-08-04T09:16:26.589Z,5.47
2022-08-04T09:21:54.531Z,3.40
2022-08-04T09:25:02.972Z,3.78
2022-08-04T09:27:57.669Z,3.47
2022-08-04T09:30:43.763Z,2.65
2022-08-04T09:33:45.673Z,2.58
2022-08-04T09:36:41.827Z,2.55
2022-08-04T09:39:29.474Z,2.67
2022-08-04T09:42:34.159Z,2.25
2022-08-04T09:46:08.079Z,2.00
2022-08-04T09:48:52.469Z,2.28
2022-08-04T09:51:58.329Z,2.13
2022-08-04T09:54:30.673Z,1.70
2022-08-04T09:57:11.222Z,1.80
2022-08-04T10:00:04.173Z,1.52
2022-08-04T10:02:56.444Z,1.77
2022-08-04T10:05:27.738Z,1.80
2022-08-04T10:08:45.683Z,1.50
2022-08-04T10:11:33.783Z,1.90
2022-08-04T10:14:43.405Z,2.33
2022-08-04T10:17:18.871Z,2.30
2022-08-04T10:19:57.439Z,2.03
2022-08-04T10:22:29.826Z,2.00
2022-08-04T10:25:38.993Z,1.98
2022-08-04T10:28:11.183Z,1.95
2022-08-04T10:30:46.390Z,2.25
2022-08-04T10:33:25.053Z,1.85
2022-08-04T10:36:01.269Z,2.20
2022-08-04T10:38:40.926Z,2.05
2022-08-04T10:41:54.098Z,2.03
2022-08-04T10:44:57.641Z,2.28
2022-08-04T10:47:35.730Z,1.70
2022-08-04T10:50:05.722Z,2.08
2022-08-04T10:52:55.925Z,2.08
2022-08-04T10:56:07.417Z,2.65
2022-08-04T10:58:48.710Z,4.20
2022-08-04T11:02:01.322Z,3.78
2022-08-04T11:04:45.722Z,2.80
2022-08-04T11:07:23.911Z,3.17
2022-08-04T11:09:52.960Z,3.08
2022-08-04T11:12:28.782Z,3.47
2022-08-04T11:15:09.689Z,3.30
2022-08-04T11:17:42.127Z,4.03
2022-08-04T11:20:34.697Z,3.30
2022-08-04T11:23:12.183Z,3.15
2022-08-04T11:25:40.075Z,3.55
2022-08-04T11:28:26.013Z,3.40
2022-08-04T11:31:08.979Z,4.43
2022-08-04T11:34:04.640Z,4.85
2022-08-04T11:36:52.175Z,4.47
2022-08-04T11:39:30.353Z,4.10
2022-08-04T11:42:21.852Z,3.10
2022-08-04T11:45:08.593Z,3.72
2022-08-04T11:47:50.783Z,3.45
2022-08-04T11:50:27.660Z,3.88
2022-08-04T11:52:57.542Z,2.90
2022-08-04T11:55:31.139Z,2.60
2022-08-04T11:58:02.397Z,2.90
2022-08-04T12:00:32.629Z,2.78
2022-08-04T12:03:19.831Z,3.00
2022-08-04T12:06:10.320Z,2.67
2022-08-04T12:09:04.760Z,3.15
2022-08-04T12:11:51.149Z,3.00
2022-08-04T12:14:37.336Z,2.95
2022-08-04T12:17:11.173Z,3.33
2022-08-04T12:20:04.028Z,3.40
2022-08-04T12:23:00.133Z,3.30
2022-08-04T12:25:36.200Z,3.15
2022-08-04T12:28:15.226Z,3.15
2022-08-04T12:31:01.681Z,3.05
2022-08-04T12:34:09.255Z,3.92
2022-08-04T12:37:00.169Z,3.67
2022-08-04T12:39:30.608Z,3.58
2022-08-04T12:44:39.117Z,3.63
2022-08-04T12:47:26.934Z,3.28
2022-08-04T12:50:02.903Z,2.83
2022-08-04T12:55:34.471Z,3.20
2022-08-04T12:58:43.330Z,2.63
2022-08-04T13:02:10.154Z,2.78
2022-08-04T13:04:17.103Z,3.90
2022-08-04T13:06:53.843Z,3.50
2022-08-04T13:09:24.257Z,4.32
2022-08-04T13:11:56.123Z,2.95
2022-08-04T13:14:27.535Z,2.90
2022-08-04T13:17:04.485Z,3.80
2022-08-04T13:19:41.614Z,3.30
2022-08-04T13:22:10.144Z,3.50
2022-08-04T13:24:56.321Z,3.28
2022-08-04T13:27:43.132Z,3.08
2022-08-04T13:30:17.083Z,3.70
2022-08-04T13:33:05.097Z,3.85
2022-08-04T13:35:56.035Z,3.05
2022-08-04T13:38:25.357Z,3.20
2022-08-04T13:40:54.380Z,3.25
2022-08-04T13:43:48.472Z,3.25
2022-08-04T13:46:41.262Z,3.10
2022-08-04T13:49:54.212Z,3.30
2022-08-04T13:52:11.242Z,3.63
2022-08-04T13:54:48.196Z,3.70
2022-08-04T13:57:31.489Z,2.85
2022-08-04T14:00:09.609Z,2.58
2022-08-04T14:02:59.246Z,3.45
2022-08-04T14:05:32.568Z,2.75
2022-08-04T14:08:13.032Z,4.00
2022-08-04T14:10:46.439Z,3.15
2022-08-04T14:13:17.377Z,3.20
2022-08-04T14:16:02.076Z,3.60
2022-08-04T14:18:32.914Z,3.90
2022-08-04T14:21:18.367Z,2.80
2022-08-04T14:23:56.606Z,2.72
2022-08-04T14:26:33.971Z,2.65
2022-08-04T14:29:26.526Z,3.63
2022-08-04T14:32:12.995Z,1.98
2022-08-04T14:34:46.861Z,2.80
2022-08-04T14:37:19.827Z,2.50
2022-08-04T14:40:08.944Z,2.88
2022-08-04T14:42:43.348Z,2.60
2022-08-04T14:45:12.426Z,2.03
2022-08-04T14:47:52.402Z,2.67
2022-08-04T14:50:33.109Z,2.30
2022-08-04T14:53:06.950Z,2.47
2022-08-04T14:55:35.634Z,2.10
2022-08-04T14:58:34.750Z,2.42
2022-08-04T15:01:00.133Z,2.15
2022-08-04T15:03:32.360Z,2.33
2022-08-04T15:06:07.896Z,2.30
2022-08-04T15:08:39.358Z,2.40
2022-08-04T15:11:10.815Z,2.00
2022-08-04T15:13:53.696Z,2.13
2022-08-04T15:16:22.868Z,1.83
2022-08-04T15:18:54.868Z,1.70
2022-08-04T15:21:28.762Z,1.52
2022-08-04T15:23:57.910Z,1.85
2022-08-04T15:26:43.620Z,1.80
2022-08-04T15:30:00.925Z,1.27
2022-08-04T15:32:31.033Z,1.63
2022-08-04T15:35:09.623Z,1.30
2022-08-04T15:37:50.135Z,1.70
2022-08-04T15:40:33.290Z,1.63
2022-08-04T15:43:26.871Z,1.67
2022-08-04T15:46:02.114Z,1.55
2022-08-04T15:48:48.611Z,1.52
2022-08-04T15:51:32.177Z,1.50
2022-08-04T15:54:02.630Z,1.33
2022-08-04T15:56:31.906Z,1.40
2022-08-04T15:58:59.549Z,1.67
2022-08-04T16:01:36.638Z,1.60
2022-08-04T16:04:25.820Z,1.42
2022-08-04T16:07:07.509Z,1.40
2022-08-04T16:09:45.297Z,1.65
2022-08-04T16:13:00.809Z,1.55
2022-08-04T16:16:03.379Z,1.90
2022-08-04T16:18:31.773Z,2.10
2022-08-04T16:21:08.646Z,1.40
2022-08-04T16:23:59.183Z,1.60
2022-08-04T16:26:45.393Z,1.60
2022-08-04T16:29:40.411Z,1.60
2022-08-04T16:32:16.244Z,1.63
2022-08-04T16:34:54.601Z,1.60
2022-08-04T16:37:34.281Z,1.65
2022-08-04T16:40:38.777Z,1.25
2022-08-04T16:43:18.674Z,1.55
2022-08-04T16:45:59.613Z,1.25
2022-08-04T16:48:31.604Z,2.38
2022-08-04T16:51:09.150Z,2.10
2022-08-04T16:53:52.916Z,1.58
2022-08-04T16:56:34.668Z,1.45
2022-08-04T16:59:12.057Z,1.10
2022-08-04T17:01:52.196Z,1.20
2022-08-04T17:04:30.360Z,1.50
2022-08-04T17:07:07.701Z,1.45
2022-08-04T17:09:38.129Z,1.60
2022-08-04T17:14:38.930Z,1.60
2022-08-04T17:17:08.688Z,1.90
2022-08-04T17:19:38.340Z,1.80
2022-08-04T17:22:11.742Z,1.70
2022-08-04T17:24:41.284Z,1.50
2022-08-04T17:29:58.817Z,1.45
2022-08-04T17:32:27.180Z,1.35
2022-08-04T17:37:52.709Z,1.40
2022-08-04T17:40:25.476Z,1.42
2022-08-04T17:46:29.732Z,1.42
2022-08-04T17:49:17.873Z,1.55
2022-08-04T17:52:06.072Z,1.40
2022-08-04T17:54:40.603Z,1.27
2022-08-04T17:57:21.565Z,1.60
2022-08-04T18:02:54.960Z,1.73
2022-08-04T18:06:01.618Z,1.38
2022-08-04T18:08:39.192Z,1.73
2022-08-04T18:11:21.313Z,1.75
2022-08-04T18:13:57.933Z,1.70
2022-08-04T18:19:19.101Z,1.42
2022-08-04T18:22:00.374Z,1.58
2022-08-04T18:24:35.708Z,1.50
2022-08-04T18:27:21.949Z,1.50
2022-08-04T18:30:33.716Z,2.00
2022-08-04T18:33:04.207Z,1.70
2022-08-04T18:36:34.659Z,1.40
2022-08-04T18:38:26.546Z,1.63
2022-08-04T18:40:57.968Z,1.52
2022-08-04T18:43:27.841Z,1.90
2022-08-04T18:46:01.593Z,1.50
2022-08-04T18:48:36.710Z,1.48
2022-08-04T18:51:23.275Z,1.90
2022-08-04T18:53:54.878Z,1.60
2022-08-04T18:56:33.187Z,1.40
2022-08-04T18:59:02.866Z,1.83
2022-08-04T19:02:12.343Z,1.40
2022-08-04T19:04:33.212Z,1.52
2022-08-04T19:07:28.771Z,1.50
2022-08-04T19:12:45.135Z,1.58
2022-08-04T19:15:13.117Z,1.67
2022-08-04T19:17:55.099Z,1.30
2022-08-04T19:20:31.204Z,1.17
2022-08-04T19:24:30.338Z,1.40
2022-08-04T19:26:01.262Z,1.10
2022-08-04T19:28:34.440Z,1.65
2022-08-04T19:31:12.753Z,1.85
2022-08-04T19:33:58.951Z,1.48
2022-08-04T19:36:33.745Z,1.20
2022-08-04T19:39:11.245Z,1.40
2022-08-04T19:42:05.193Z,1.25
2022-08-04T19:44:30.845Z,1.30
2022-08-04T19:50:05.055Z,1.38
2022-08-04T19:52:38.670Z,1.30
2022-08-04T19:55:10.608Z,1.35
2022-08-04T19:57:46.381Z,1.40
2022-08-04T20:00:33.973Z,1.20
2022-08-04T20:03:11.298Z,1.27
2022-08-04T20:05:54.848Z,1.17
2022-08-04T20:08:27.991Z,1.02
2022-08-04T20:10:56.073Z,1.27
2022-08-04T20:13:36.984Z,1.63
2022-08-04T20:16:28.341Z,1.23
2022-08-04T20:19:02.900Z,1.50
2022-08-04T20:21:54.415Z,1.55
2022-08-04T20:24:38.205Z,1.70
2022-08-04T20:27:14.842Z,1.40
2022-08-04T20:29:55.596Z,1.60
2022-08-04T20:32:27.210Z,1.45
2022-08-04T20:34:56.906Z,1.40
2022-08-04T20:37:54.754Z,1.40
2022-08-04T20:40:17.028Z,1.52
2022-08-04T20:42:47.770Z,1.50
2022-08-04T20:45:18.610Z,1.50
2022-08-04T20:47:54.191Z,1.67
2022-08-04T20:50:29.638Z,1.70
2022-08-04T20:52:58.594Z,1.58
2022-08-04T20:58:19.766Z,1.70
2022-08-04T21:00:57.069Z,1.75
2022-08-04T21:03:49.490Z,1.30
2022-08-04T21:06:15.792Z,1.70
2022-08-04T21:08:56.728Z,1.75
2022-08-04T21:11:32.641Z,2.38
2022-08-04T21:14:03.198Z,2.15
2022-08-04T21:16:54.229Z,1.73
2022-08-04T21:19:24.586Z,2.00
2022-08-04T21:21:55.657Z,2.55
2022-08-04T21:24:26.066Z,2.10
2022-08-04T21:26:57.201Z,2.72
2022-08-04T21:32:05.949Z,2.30
2022-08-04T21:34:39.249Z,2.58
2022-08-04T21:37:11.203Z,2.80
2022-08-04T21:39:50.344Z,2.50
2022-08-04T21:42:42.815Z,2.47
2022-08-04T21:45:19.790Z,3.13
2022-08-04T21:47:49.689Z,3.00
2022-08-04T21:50:19.940Z,2.80
2022-08-04T21:56:06.698Z,2.50
2022-08-04T21:58:40.709Z,3.63
2022-08-04T22:04:14.052Z,3.30
2022-08-04T22:06:51.691Z,3.30
2022-08-04T22:09:21.865Z,3.13
2022-08-04T22:11:51.585Z,3.15
2022-08-04T22:14:28.949Z,3.50
2022-08-04T22:17:01.881Z,3.50
2022-08-04T22:19:50.756Z,3.60
2022-08-04T22:22:25.717Z,3.97
2022-08-04T22:24:58.816Z,4.10
2022-08-04T22:27:47.223Z,4.03
2022-08-04T22:30:18.221Z,3.75
2022-08-04T22:32:47.938Z,3.95
2022-08-04T22:35:36.396Z,3.70
2022-08-04T22:38:20.838Z,3.47
2022-08-04T22:41:08.457Z,4.07
2022-08-04T22:43:38.304Z,4.10
2022-08-04T22:46:11.984Z,3.47
2022-08-04T22:48:43.463Z,3.45
2022-08-04T22:51:13.920Z,3.78
2022-08-04T22:53:48.771Z,3.78
2022-08-04T22:56:38.266Z,3.40
2022-08-04T22:59:11.100Z,3.92
2022-08-04T23:02:00.879Z,3.80
2022-08-04T23:04:30.169Z,3.70
2022-08-04T23:06:58.471Z,3.35
2022-08-04T23:09:49.659Z,3.78
2022-08-04T23:12:26.501Z,3.88
2022-08-04T23:14:57.335Z,3.63
2022-08-04T23:17:27.933Z,3.47
2022-08-04T23:19:58.980Z,3.53
2022-08-04T23:22:41.210Z,3.80
2022-08-04T23:25:16.964Z,3.70
2022-08-04T23:27:51.011Z,3.60
2022-08-04T23:30:24.746Z,3.50
2022-08-04T23:32:58.441Z,3.60
2022-08-04T23:35:26.455Z,3.38
2022-08-04T23:37:56.921Z,3.47
2022-08-04T23:40:49.875Z,3.55
2022-08-04T23:43:19.491Z,3.95
2022-08-04T23:46:04.699Z,3.53
2022-08-04T23:48:38.837Z,3.35
2022-08-04T23:51:14.173Z,3.38
2022-08-04T23:54:01.757Z,3.58
2022-08-04T23:56:38.108Z,3.70
2022-08-04T23:59:05.712Z,3.70
